Latest Weather Observations for Borroloola

IDD60801

Issued at 2:31 pm CST Monday 25 May 2015 (issued every 30 minutes, with the page automatically refreshed every 10 minutes)

About weather observations | Map of weather stations | Latest weather observations for NT | Other Formats
Station Details ID: 014723 Name: BORROLOOLA AIRPORT Lat: -16.08 Lon: 136.30 Height: 16.1 m
Data from the previous 72 hours. | See also: Recent months at Borroloola
Date/Time
CST
Temp
°C
App
Temp
°C
Dew
Point
Rel
Hum
%
Delta-T
°C
Wind Press
QNH
hPa
Press
MSL
hPa
Rain
since 9 am
mm
Dir
 
Spd
km/h
Gust
km/h
Spd
kts
Gust
kts
25/02:30pm 33.2 29.9 6.5 19 14.5 SSE 13 22 7 12 1015.1 1015.0 0.0
25/02:00pm 32.9 29.9 6.2 19 14.4 ESE 11 22 6 12 1015.5 1015.4 0.0
25/01:30pm 32.6 28.5 6.0 19 14.3 E 17 26 9 14 1015.7 1015.6 0.0
25/01:00pm 32.5 28.4 8.0 22 13.6 E 19 30 10 16 1016.1 1016.0 0.0
25/12:30pm 31.6 27.4 7.3 22 13.2 E 19 30 10 16 1016.7 1016.6 0.0
25/12:00pm 31.3 28.1 8.3 24 12.7 E 15 26 8 14 1017.2 1017.1 0.0
25/11:30am 30.7 26.4 7.8 24 12.5 ESE 20 26 11 14 1017.6 1017.5 0.0
25/10:30am 29.6 26.1 8.6 27 11.6 ESE 17 24 9 13 1018.4 1018.3 0.0
25/10:00am 28.2 24.4 9.0 30 10.6 ESE 19 26 10 14 1018.8 1018.7 0.0
25/09:30am 25.8 23.7 13.6 47 7.2 SE 17 20 9 11 1018.9 1018.8 0.0
25/09:00am 23.7 23.1 14.7 57 5.3 SSE 11 17 6 9 1018.8 1018.7 0.0
25/08:30am 21.5 21.0 13.7 61 4.5 SSE 9 13 5 7 1018.5 1018.4 0.0
25/08:00am 18.6 17.8 10.9 61 4.2 S 6 7 3 4 1018.1 1018.0 0.0
25/07:30am 16.1 16.0 9.3 64 3.5 CALM 0 0 0 0 1018.0 1017.9 0.0
25/07:00am 14.3 13.6 7.1 62 3.5 CALM 0 0 0 0 1017.6 1017.5 0.0
25/06:30am 14.0 13.3 6.8 62 3.5 CALM 0 0 0 0 1017.5 1017.4 0.0
25/06:00am 14.0 13.4 7.3 64 3.3 CALM 0 0 0 0 1017.4 1017.3 0.0
25/05:30am 14.4 13.8 7.5 63 3.4 CALM 0 0 0 0 1017.2 1017.1 0.0
25/05:00am 14.6 14.0 7.4 62 3.5 CALM 0 0 0 0 1017.1 1017.0 0.0
25/04:30am 14.6 14.0 7.6 63 3.5 CALM 0 0 0 0 1017.0 1016.9 0.0
25/04:00am 14.5 13.9 7.5 63 3.5 CALM 0 0 0 0 1017.0 1016.9 0.0
25/03:30am 14.8 14.1 7.1 60 3.8 CALM 0 0 0 0 1017.0 1016.9 0.0
25/03:00am 14.8 14.2 7.6 62 3.6 CALM 0 0 0 0 1017.3 1017.2 0.0
25/02:30am 14.9 14.3 7.2 60 3.8 CALM 0 0 0 0 1017.5 1017.4 0.0
25/02:00am 15.4 14.8 7.4 59 4.0 CALM 0 0 0 0 1017.7 1017.6 0.0
25/01:30am 15.8 15.0 6.5 54 4.5 CALM 0 0 0 0 1018.0 1017.9 0.0
25/01:00am 16.1 15.1 5.7 50 5.0 CALM 0 0 0 0 1017.9 1017.8 0.0
25/12:30am 16.5 15.7 6.6 52 4.9 CALM 0 0 0 0 1017.9 1017.8 0.0
25/12:00am 16.8 16.2 7.2 53 4.8 CALM 0 0 0 0 1018.0 1017.9 0.0
 
Date/Time
CST
Temp
°C
App
Temp
°C
Dew
Point
Rel
Hum
%
Delta-T
°C
Wind Press
QNH
hPa
Press
MSL
hPa
Rain
since 9 am
mm
Dir
 
Spd
km/h
Gust
km/h
Spd
kts
Gust
kts
24/11:30pm 17.1 16.8 8.5 57 4.4 CALM 0 0 0 0 1018.0 1017.9 0.0
24/11:00pm 18.0 17.4 7.4 50 5.3 CALM 0 0 0 0 1018.1 1018.0 0.0
24/10:30pm 18.4 16.6 7.2 48 5.6 NE 6 7 3 4 1018.2 1018.1 0.0
24/10:00pm 19.7 19.4 8.7 49 5.8 CALM 0 0 0 0 1017.9 1017.8 0.0
24/09:30pm 20.9 19.2 8.5 45 6.5 NE 7 9 4 5 1017.8 1017.7 0.0
24/09:00pm 22.4 20.5 9.2 43 7.1 NE 9 13 5 7 1017.6 1017.5 0.0
24/08:30pm 23.4 21.7 8.3 38 8.0 NE 7 11 4 6 1017.1 1017.0 0.0
24/08:00pm 23.4 21.4 7.1 35 8.5 NNE 7 9 4 5 1016.7 1016.6 0.0
24/07:30pm 24.0 21.5 6.7 33 8.9 NNE 9 9 5 5 1016.3 1016.2 0.0
24/07:00pm 24.9 21.9 6.1 30 9.7 NE 11 15 6 8 1016.0 1015.9 0.0
24/06:30pm 25.9 22.5 6.0 28 10.3 NE 13 19 7 10 1015.7 1015.6 0.0
24/06:00pm 27.0 22.8 5.9 26 10.9 NNE 17 24 9 13 1015.3 1015.2 0.0
24/05:30pm 28.4 24.3 4.6 22 12.2 NNE 15 20 8 11 1014.9 1014.8 0.0
24/05:00pm 29.4 24.4 3.4 19 13.1 NNE 19 24 10 13 1014.6 1014.5 0.0
24/04:30pm 30.4 27.0 1.8 16 14.1 NNE 9 17 5 9 1014.4 1014.3 0.0
24/04:00pm 30.7 26.7 -1.9 12 15.1 E 9 17 5 9 1014.3 1014.2 0.0
24/03:30pm 31.1 26.8 -1.6 12 15.3 ENE 11 17 6 9 1014.3 1014.2 0.0
24/03:00pm 30.9 27.3 -1.8 12 15.2 WNW 7 11 4 6 1014.5 1014.4 0.0
24/02:30pm 30.2 26.8 -2.3 12 14.9 ENE 6 13 3 7 1014.7 1014.6 0.0
24/02:00pm 30.5 26.5 -2.1 12 15.1 ESE 9 17 5 9 1014.7 1014.6 0.0
24/01:30pm 29.3 25.6 -3.0 12 14.5 N 7 19 4 10 1015.0 1014.9 0.0
24/01:00pm 29.1 24.5 -1.1 14 14.1 NE 13 19 7 10 1015.7 1015.6 0.0
24/12:30pm 28.3 24.1 -0.8 15 13.5 NE 11 17 6 9 1016.2 1016.1 0.0
24/12:00pm 28.2 24.5 0.0 16 13.3 ESE 9 15 5 8 1016.6 1016.5 0.0
24/11:30am 26.8 21.4 -1.1 16 12.7 SE 17 24 9 13 1017.0 1016.9 0.0
24/11:00am 26.2 21.6 -0.8 17 12.4 ESE 13 20 7 11 1017.3 1017.2 0.0
24/10:30am 25.2 19.5 -0.8 18 11.8 SE 19 24 10 13 1017.8 1017.7 0.0
24/10:00am 24.6 18.7 -0.5 19 11.4 ESE 20 24 11 13 1018.1 1018.0 0.0
24/09:30am 23.4 18.2 -0.1 21 10.6 SE 17 28 9 15 1018.1 1018.0 0.0
24/09:00am 21.8 17.5 0.9 25 9.5 SSE 13 20 7 11 1018.1 1018.0 0.0
24/08:30am 19.6 16.0 0.6 28 8.4 S 9 15 5 8 1017.9 1017.8 0.0
24/08:00am 17.6 14.2 1.6 34 7.2 SSW 9 11 5 6 1017.8 1017.7 0.0
24/07:30am 14.5 12.3 5.3 54 4.3 WSW 6 6 3 3 1017.7 1017.6 0.0
24/07:00am 11.4 8.9 4.8 64 3.0 WSW 7 9 4 5 1017.5 1017.4 0.0
24/06:30am 11.3 8.8 4.7 64 3.0 WSW 7 9 4 5 1017.0 1016.9 0.0
24/06:00am 11.7 10.7 5.6 66 2.8 CALM 0 0 0 0 1016.5 1016.4 0.0
24/05:30am 11.8 10.9 5.9 67 2.8 CALM 0 0 0 0 1016.5 1016.4 0.0
24/05:00am 11.1 10.1 5.4 68 2.6 CALM 0 0 0 0 1016.7 1016.6 0.0
24/04:30am 11.5 10.5 5.8 68 2.6 CALM 0 0 0 0 1016.5 1016.4 0.0
24/04:00am 12.1 11.2 5.9 66 2.9 CALM 0 0 0 0 1016.6 1016.5 0.0
24/03:30am 12.2 11.6 7.5 73 2.3 CALM 0 0 0 0 1016.7 1016.6 0.0
24/03:00am 12.8 12.0 6.6 66 3.0 CALM 0 0 0 0 1016.7 1016.6 0.0
24/02:30am 13.5 13.1 8.1 70 2.7 CALM 0 0 0 0 1016.9 1016.8 0.0
24/02:00am 13.8 13.3 7.8 67 3.0 CALM 0 0 0 0 1017.1 1017.0 0.0
24/01:30am 14.2 13.7 7.7 65 3.2 CALM 0 0 0 0 1017.2 1017.1 0.0
24/01:00am 14.3 13.6 7.1 62 3.5 CALM 0 0 0 0 1017.4 1017.3 0.0
24/12:30am 14.7 14.0 6.8 59 3.8 CALM 0 0 0 0 1017.5 1017.4 0.0
24/12:00am 15.5 14.8 7.0 57 4.2 CALM 0 0 0 0 1017.6 1017.5 0.0
 
Date/Time
CST
Temp
°C
App
Temp
°C
Dew
Point
Rel
Hum
%
Delta-T
°C
Wind Press
QNH
hPa
Press
MSL
hPa
Rain
since 9 am
mm
Dir
 
Spd
km/h
Gust
km/h
Spd
kts
Gust
kts
23/11:30pm 15.7 15.2 7.7 59 4.0 CALM 0 0 0 0 1017.6 1017.5 0.0
23/11:00pm 16.1 14.1 7.1 55 4.5 WSW 7 7 4 4 1017.6 1017.5 0.0
23/10:30pm 17.2 15.6 6.4 49 5.3 SW 4 7 2 4 1017.5 1017.4 0.0
23/10:00pm 18.5 17.9 7.6 49 5.5 CALM 0 0 0 0 1017.4 1017.3 0.0
23/09:30pm 19.5 19.2 8.5 49 5.7 CALM 0 0 0 0 1017.4 1017.3 0.0
23/09:00pm 21.1 21.1 9.7 48 6.1 CALM 0 0 0 0 1017.4 1017.3 0.0
23/08:30pm 21.8 19.8 8.7 43 6.9 NNE 9 11 5 6 1017.2 1017.1 0.0
23/08:00pm 22.6 19.8 6.8 36 8.1 NE 11 19 6 10 1016.8 1016.7 0.0
23/07:30pm 22.7 20.3 -2.8 18 10.9 CALM 0 0 0 0 1016.3 1016.2 0.0
23/07:00pm 24.3 21.4 -4.0 15 12.0 S 2 7 1 4 1016.1 1016.0 0.0
23/06:30pm 25.5 21.6 -4.9 13 12.8 SSW 7 9 4 5 1015.6 1015.5 0.0
23/06:00pm 27.4 23.0 -5.6 11 14.0 S 9 11 5 6 1015.2 1015.1 0.0
23/05:30pm 29.0 23.3 -7.0 9 15.1 SSE 15 19 8 10 1014.9 1014.8 0.0
23/05:00pm 29.6 23.2 -6.6 9 15.4 SSE 19 24 10 13 1014.7 1014.6 0.0
23/04:30pm 29.9 23.2 -7.9 8 15.7 S 20 28 11 15 1014.3 1014.2 0.0
23/04:00pm 30.3 23.8 -7.6 8 15.9 S 19 22 10 12 1014.2 1014.1 0.0
23/03:30pm 30.3 23.8 -7.6 8 15.9 S 19 26 10 14 1014.3 1014.2 0.0
23/03:00pm 29.8 23.7 -8.0 8 15.7 S 17 22 9 12 1014.5 1014.4 0.0
23/02:30pm 29.9 23.8 -7.9 8 15.7 SSE 17 26 9 14 1014.8 1014.7 0.0
23/02:00pm 29.0 23.7 -7.0 9 15.1 S 13 24 7 13 1015.4 1015.3 0.0
23/01:30pm 29.0 23.5 -5.7 10 14.9 SSE 15 24 8 13 1016.0 1015.9 0.0
23/01:00pm 27.8 21.9 -5.3 11 14.1 SSE 17 26 9 14 1016.5 1016.4 0.0
23/12:30pm 27.0 21.2 -4.8 12 13.6 S 17 26 9 14 1017.1 1017.0 0.0
23/12:00pm 27.4 21.4 -3.4 13 13.5 SSE 19 28 10 15 1017.7 1017.6 0.0
23/11:30am 25.6 19.5 -3.8 14 12.6 SE 19 28 10 15 1018.3 1018.2 0.0
23/11:00am 24.6 18.5 -3.7 15 12.1 SSE 19 24 10 13 1018.8 1018.7 0.0
23/10:30am 23.4 17.1 -3.8 16 11.5 SSE 20 28 11 15 1019.4 1019.3 0.0
23/10:00am 23.3 17.1 -3.1 17 11.3 SE 20 26 11 14 1019.8 1019.7 0.0
23/09:30am 22.2 14.9 -3.2 18 10.7 SE 26 33 14 18 1019.9 1019.8 0.0
23/09:00am 21.5 14.5 -3.1 19 10.3 SSE 24 32 13 17 1020.0 1019.9 0.0
23/08:30am 20.4 14.2 -3.3 20 9.8 SSE 20 26 11 14 1019.8 1019.7 0.0
23/08:00am 19.0 14.2 -2.6 23 9.0 S 13 19 7 10 1019.6 1019.5 0.0
23/07:30am 17.5 13.6 -1.7 27 8.0 SSW 9 11 5 6 1019.5 1019.4 0.0
23/07:00am 16.0 12.2 -1.1 31 7.1 S 9 11 5 6 1019.2 1019.1 0.0
23/06:30am 16.1 12.3 -1.0 31 7.1 S 9 11 5 6 1018.8 1018.7 0.0
23/06:00am 16.4 12.9 -1.2 30 7.3 S 7 9 4 5 1018.6 1018.5 0.0
23/05:30am 16.4 12.9 -1.2 30 7.3 SSW 7 9 4 5 1018.5 1018.4 0.0
23/05:00am 16.5 13.0 -1.6 29 7.5 S 7 9 4 5 1018.4 1018.3 0.0
23/04:30am 17.1 13.3 -1.1 29 7.6 S 9 9 5 5 1018.3 1018.2 0.0
23/04:00am 17.6 13.8 -1.1 28 7.9 S 9 11 5 6 1018.2 1018.1 0.0
23/03:30am 18.6 14.7 -1.8 25 8.6 S 9 13 5 7 1018.1 1018.0 0.0
23/03:00am 19.4 15.0 -2.2 23 9.1 S 11 15 6 8 1018.1 1018.0 0.0
23/02:30am 20.4 15.7 -2.0 22 9.5 SSE 13 17 7 9 1018.1 1018.0 0.0
23/02:00am 20.5 15.9 -0.7 24 9.3 SSE 13 17 7 9 1018.1 1018.0 0.0
23/01:30am 20.2 16.3 1.1 28 8.6 SSE 11 13 6 7 1018.1 1018.0 0.0
23/01:00am 20.0 17.5 4.5 36 7.5 S 7 11 4 6 1018.1 1018.0 0.0
23/12:30am 20.7 17.1 5.1 36 7.6 SSE 13 17 7 9 1018.2 1018.1 0.0
23/12:00am 20.3 18.4 9.2 49 5.9 S 9 13 5 7 1018.3 1018.2 0.0
 
Date/Time
CST
Temp
°C
App
Temp
°C
Dew
Point
Rel
Hum
%
Delta-T
°C
Wind Press
QNH
hPa
Press
MSL
hPa
Rain
since 9 am
mm
Dir
 
Spd
km/h
Gust
km/h
Spd
kts
Gust
kts
22/11:30pm 20.2 18.6 11.7 58 4.7 SSE 11 13 6 7 1018.4 1018.3 0.0
22/11:00pm 19.0 18.4 11.6 62 4.1 SSE 6 7 3 4 1018.7 1018.6 0.0
22/10:30pm 19.9 20.9 13.1 65 3.9 CALM 0 0 0 0 1018.7 1018.6 0.0
22/10:00pm 20.4 21.2 12.4 60 4.5 CALM 0 0 0 0 1018.7 1018.6 0.0
22/09:30pm 22.0 22.4 13.6 59 4.8 E 4 7 2 4 1018.6 1018.5 0.0
22/09:00pm 22.7 22.7 14.3 59 4.9 NE 7 9 4 5 1018.3 1018.2 0.0
22/08:30pm 23.1 23.1 14.1 57 5.3 ENE 7 9 4 5 1018.3 1018.2 0.0
22/08:00pm 23.8 23.1 14.2 55 5.7 NE 11 15 6 8 1017.9 1017.8 0.0
22/07:30pm 24.4 23.4 13.3 50 6.4 NE 11 15 6 8 1017.3 1017.2 0.0
22/07:00pm 25.1 23.5 12.7 46 7.2 NE 13 17 7 9 1016.8 1016.7 0.0
22/06:30pm 26.3 24.3 11.6 40 8.4 NE 13 20 7 11 1016.4 1016.3 0.0
22/06:00pm 29.2 25.3 7.2 25 11.8 SSE 17 22 9 12 1015.8 1015.7 0.0
22/05:30pm 30.4 26.1 7.0 23 12.6 S 19 24 10 13 1015.4 1015.3 0.0
22/05:00pm 30.8 26.0 7.3 23 12.8 S 22 30 12 16 1015.2 1015.1 0.0
22/04:30pm 31.4 27.5 7.1 22 13.2 SE 17 22 9 12 1015.2 1015.1 0.0
22/04:00pm 31.1 27.2 6.9 22 13.1 SE 17 22 9 12 1015.1 1015.0 0.0
22/03:30pm 30.8 26.9 7.3 23 12.8 SSE 17 26 9 14 1015.1 1015.0 0.0
22/03:00pm 31.8 28.9 8.1 23 13.1 SE 13 28 7 15 1015.4 1015.3 0.0

Other Formats:

Comma delimited format used in spreadsheet applications
http://www.bom.gov.au/fwo/IDD60801/IDD60801.94152.axf

JavaScript Object Notation format (JSON) in row-major order
http://www.bom.gov.au/fwo/IDD60801/IDD60801.94152.json